Navigator Of The Seas — C6FU4 — position and weather

sailwx.info

Track history (hours):
 
Tides and Currents Weather Stations Pressure Air Temp Water Temp Dewpoint Dewpoint Depression Visibility Wind Speed Wind Dir Waves Ship Positions

Navigator Of The Seas

Operator: Royal Caribbean Cruises Ltd

Last reported at 2017-Apr-24 01:52 UTC. Time now 2017-Apr-25 02:54 UTC.
Position N 25°55' W 079°48'.

Type: Passenger vessel. MMSI: 311478000.

Date/timePositionNaut miles runAvg speedWind from/ knotsBaromVisibWave heightAir tempDewpointWater temp
2017-Apr-24 01:52N 25°55' W 079°48'820.1
2017-Apr-24 01:27N 25°51' W 079°55'817.6
2017-Apr-24 01:00N 25°47' W 080°03'5 9.8
2017-Apr-24 00:28N 25°46' W 080°09'2 3.1
2017-Apr-23 23:56N 25°47' W 080°11'0 0.0
2017-Apr-23 23:29N 25°47' W 080°11'0 0.0
2017-Apr-23 22:59N 25°47' W 080°11'0 0.0
2017-Apr-23 22:26N 25°47' W 080°11'0 0.0
2017-Apr-23 21:59N 25°47' W 080°11'0 0.0
2017-Apr-23 21:29N 25°47' W 080°11'0 0.0
2017-Apr-23 20:59N 25°47' W 080°11'0 0.0
2017-Apr-23 20:29N 25°47' W 080°11'0 0.0
2017-Apr-23 19:59N 25°47' W 080°11'0 0.0
2017-Apr-23 19:26N 25°47' W 080°11'0 0.0
2017-Apr-23 18:56N 25°47' W 080°11'0 0.0
2017-Apr-23 18:26N 25°47' W 080°11'0 0.0
2017-Apr-23 17:53N 25°47' W 080°11'0 0.0
2017-Apr-23 17:29N 25°47' W 080°11'0 0.0
2017-Apr-23 16:59N 25°47' W 080°11'0 0.0
2017-Apr-23 16:20N 25°47' W 080°11'0 0.0
2017-Apr-23 15:59N 25°47' W 080°11'0 0.0
2017-Apr-23 15:29N 25°47' W 080°11'0 0.0
2017-Apr-23 14:59N 25°47' W 080°11'0 0.0
2017-Apr-23 13:53N 25°47' W 080°11'0 0.0
2017-Apr-23 13:26N 25°47' W 080°11'0 0.0
2017-Apr-23 12:59N 25°47' W 080°11'0 0.0
2017-Apr-23 12:29N 25°47' W 080°11'0 0.0
2017-Apr-23 11:59N 25°47' W 080°11'0 0.0
2017-Apr-23 11:29N 25°47' W 080°11'0 0.0
2017-Apr-23 11:01N 25°47' W 080°11'0 0.8
2017-Apr-23 10:31N 25°47' W 080°10'2 4.5
2017-Apr-23 10:00N 25°46' W 080°08'5 9.8
2017-Apr-23 09:31N 25°46' W 080°03'510.8
2017-Apr-23 09:01N 25°42' W 079°59'713.0
2017-Apr-23 08:30N 25°36' W 079°56'714.1
2017-Apr-23 08:00N 25°29' W 079°53'713.9
2017-Apr-23 07:28N 25°22' W 079°51'613.2
2017-Apr-23 07:00N 25°16' W 079°49'  
2017-Apr-18 06:00N 13°24' W 069°00'   100 / 261024.010.8 24.021.126.0
2017-Apr-15 00:39N 25°18' W 079°50'214.8
2017-Apr-15 00:30N 25°20' W 079°51'714.8
2017-Apr-15 00:01N 25°27' W 079°54'714.8
2017-Apr-14 23:30N 25°34' W 079°57'815.3
2017-Apr-14 23:01N 25°40' W 080°01'713.2
2017-Apr-14 22:30N 25°46' W 080°05'4 8.6
2017-Apr-14 22:00N 25°47' W 080°10'1 1.2
2017-Apr-14 21:30N 25°47' W 080°11'0 0.0
2017-Apr-14 20:57N 25°47' W 080°11'0 0.0
2017-Apr-14 20:30N 25°47' W 080°11'0 0.0
2017-Apr-14 19:57N 25°47' W 080°11'0 0.0
2017-Apr-14 19:30N 25°47' W 080°11'0 0.0
2017-Apr-14 19:00N 25°47' W 080°11'0 0.0
2017-Apr-14 18:27N 25°47' W 080°11'0 0.0
2017-Apr-14 18:00N 25°47' W 080°11'0 0.0
2017-Apr-14 17:27N 25°47' W 080°11'0 0.0
2017-Apr-14 17:00N 25°47' W 080°11'0 0.0
2017-Apr-14 16:30N 25°47' W 080°11'0 0.0
2017-Apr-14 16:00N 25°47' W 080°11'0 0.0
2017-Apr-14 15:27N 25°47' W 080°11'0 0.0
2017-Apr-14 15:00N 25°47' W 080°11'0 0.0
2017-Apr-14 14:30N 25°47' W 080°11'0 0.0
2017-Apr-14 13:30N 25°47' W 080°11'0 0.0
2017-Apr-14 13:00N 25°47' W 080°11'0 0.0
2017-Apr-14 12:30N 25°47' W 080°11'0 0.0
2017-Apr-14 11:57N 25°47' W 080°11'0 0.0
2017-Apr-14 11:30N 25°47' W 080°11'0 0.0
2017-Apr-14 11:00N 25°47' W 080°11'0 0.6
2017-Apr-14 10:30N 25°47' W 080°11'3 5.6
2017-Apr-14 10:00N 25°46' W 080°08'510.9
2017-Apr-14 09:30N 25°47' W 080°02'5 9.8
2017-Apr-14 09:00N 25°42' W 080°00'713.9
2017-Apr-14 08:30N 25°35' W 080°00'815.8
2017-Apr-14 08:00N 25°27' W 080°00'917.1
2017-Apr-14 07:30N 25°19' W 080°02'  
Track history (hours):
 
Tides and Currents Weather Stations Pressure Air Temp Water Temp Dewpoint Dewpoint Depression Visibility Wind Speed Wind Dir Waves Ship Positions

Navigator Of The Seas

Operator: Royal Caribbean Cruises Ltd

Last reported at 2017-Apr-24 01:52 UTC. Time now 2017-Apr-25 02:54 UTC.
Position N 25°55' W 079°48'.

Type: Passenger vessel. MMSI: 311478000.

Date/timePositionNaut miles runAvg speedWind from/ knotsBaromVisibWave heightAir tempDewpointWater temp
2017-Apr-24 01:52N 25°55' W 079°48'820.1
2017-Apr-24 01:27N 25°51' W 079°55'817.6
2017-Apr-24 01:00N 25°47' W 080°03'5 9.8
2017-Apr-24 00:28N 25°46' W 080°09'2 3.1
2017-Apr-23 23:56N 25°47' W 080°11'0 0.0
2017-Apr-23 23:29N 25°47' W 080°11'0 0.0
2017-Apr-23 22:59N 25°47' W 080°11'0 0.0
2017-Apr-23 22:26N 25°47' W 080°11'0 0.0
2017-Apr-23 21:59N 25°47' W 080°11'0 0.0
2017-Apr-23 21:29N 25°47' W 080°11'0 0.0
2017-Apr-23 20:59N 25°47' W 080°11'0 0.0
2017-Apr-23 20:29N 25°47' W 080°11'0 0.0
2017-Apr-23 19:59N 25°47' W 080°11'0 0.0
2017-Apr-23 19:26N 25°47' W 080°11'0 0.0
2017-Apr-23 18:56N 25°47' W 080°11'0 0.0
2017-Apr-23 18:26N 25°47' W 080°11'0 0.0
2017-Apr-23 17:53N 25°47' W 080°11'0 0.0
2017-Apr-23 17:29N 25°47' W 080°11'0 0.0
2017-Apr-23 16:59N 25°47' W 080°11'0 0.0
2017-Apr-23 16:20N 25°47' W 080°11'0 0.0
2017-Apr-23 15:59N 25°47' W 080°11'0 0.0
2017-Apr-23 15:29N 25°47' W 080°11'0 0.0
2017-Apr-23 14:59N 25°47' W 080°11'0 0.0
2017-Apr-23 13:53N 25°47' W 080°11'0 0.0
2017-Apr-23 13:26N 25°47' W 080°11'0 0.0
2017-Apr-23 12:59N 25°47' W 080°11'0 0.0
2017-Apr-23 12:29N 25°47' W 080°11'0 0.0
2017-Apr-23 11:59N 25°47' W 080°11'0 0.0
2017-Apr-23 11:29N 25°47' W 080°11'0 0.0
2017-Apr-23 11:01N 25°47' W 080°11'0 0.8
2017-Apr-23 10:31N 25°47' W 080°10'2 4.5
2017-Apr-23 10:00N 25°46' W 080°08'5 9.8
2017-Apr-23 09:31N 25°46' W 080°03'510.8
2017-Apr-23 09:01N 25°42' W 079°59'713.0
2017-Apr-23 08:30N 25°36' W 079°56'714.1
2017-Apr-23 08:00N 25°29' W 079°53'713.9
2017-Apr-23 07:28N 25°22' W 079°51'613.2
2017-Apr-23 07:00N 25°16' W 079°49'  
2017-Apr-18 06:00N 13°24' W 069°00'   100 / 261024.010.8 24.021.126.0
2017-Apr-15 00:39N 25°18' W 079°50'214.8
2017-Apr-15 00:30N 25°20' W 079°51'714.8
2017-Apr-15 00:01N 25°27' W 079°54'714.8
2017-Apr-14 23:30N 25°34' W 079°57'815.3
2017-Apr-14 23:01N 25°40' W 080°01'713.2
2017-Apr-14 22:30N 25°46' W 080°05'4 8.6
2017-Apr-14 22:00N 25°47' W 080°10'1 1.2
2017-Apr-14 21:30N 25°47' W 080°11'0 0.0
2017-Apr-14 20:57N 25°47' W 080°11'0 0.0
2017-Apr-14 20:30N 25°47' W 080°11'0 0.0
2017-Apr-14 19:57N 25°47' W 080°11'0 0.0
2017-Apr-14 19:30N 25°47' W 080°11'0 0.0
2017-Apr-14 19:00N 25°47' W 080°11'0 0.0
2017-Apr-14 18:27N 25°47' W 080°11'0 0.0
2017-Apr-14 18:00N 25°47' W 080°11'0 0.0
2017-Apr-14 17:27N 25°47' W 080°11'0 0.0
2017-Apr-14 17:00N 25°47' W 080°11'0 0.0
2017-Apr-14 16:30N 25°47' W 080°11'0 0.0
2017-Apr-14 16:00N 25°47' W 080°11'0 0.0
2017-Apr-14 15:27N 25°47' W 080°11'0 0.0
2017-Apr-14 15:00N 25°47' W 080°11'0 0.0
2017-Apr-14 14:30N 25°47' W 080°11'0 0.0
2017-Apr-14 13:30N 25°47' W 080°11'0 0.0
2017-Apr-14 13:00N 25°47' W 080°11'0 0.0
2017-Apr-14 12:30N 25°47' W 080°11'0 0.0
2017-Apr-14 11:57N 25°47' W 080°11'0 0.0
2017-Apr-14 11:30N 25°47' W 080°11'0 0.0
2017-Apr-14 11:00N 25°47' W 080°11'0 0.6
2017-Apr-14 10:30N 25°47' W 080°11'3 5.6
2017-Apr-14 10:00N 25°46' W 080°08'510.9
2017-Apr-14 09:30N 25°47' W 080°02'5 9.8
2017-Apr-14 09:00N 25°42' W 080°00'713.9
2017-Apr-14 08:30N 25°35' W 080°00'815.8
2017-Apr-14 08:00N 25°27' W 080°00'917.1
2017-Apr-14 07:30N 25°19' W 080°02'  

Dump ship's entire track history